createdAt,value
2023-05-19T00:00:27.761Z,0.00
2023-05-19T00:01:27.764Z,0.00
2023-05-19T00:02:27.817Z,0.00
2023-05-19T00:03:27.800Z,0.00
2023-05-19T00:04:27.765Z,0.00
2023-05-19T00:05:27.752Z,0.00
2023-05-19T00:06:27.769Z,0.00
2023-05-19T00:07:27.747Z,0.00
2023-05-19T00:08:27.755Z,0.00
2023-05-19T00:09:27.768Z,0.00
2023-05-19T00:10:27.777Z,0.00
2023-05-19T00:11:27.762Z,0.00
2023-05-19T00:12:27.739Z,0.00
2023-05-19T00:13:27.722Z,0.00
2023-05-19T00:14:27.751Z,0.00
2023-05-19T00:15:27.721Z,0.00
2023-05-19T00:16:27.888Z,0.00
2023-05-19T00:17:27.792Z,0.00
2023-05-19T00:18:27.721Z,0.00
2023-05-19T00:19:27.778Z,0.00
2023-05-19T00:20:27.707Z,0.00
2023-05-19T00:21:27.717Z,0.00
2023-05-19T00:22:27.702Z,0.00
2023-05-19T00:23:27.710Z,0.00
2023-05-19T00:24:27.702Z,0.00
2023-05-19T00:25:27.689Z,0.00
2023-05-19T00:26:27.712Z,0.00
2023-05-19T00:27:27.711Z,0.00
2023-05-19T00:28:27.695Z,0.00
2023-05-19T00:29:27.683Z,0.00
2023-05-19T00:30:27.680Z,0.00
2023-05-19T00:31:27.827Z,0.00
2023-05-19T00:32:27.708Z,0.00
2023-05-19T00:33:27.713Z,0.00
2023-05-19T00:34:27.694Z,0.00
2023-05-19T00:35:27.654Z,0.00
2023-05-19T00:36:27.696Z,0.00
2023-05-19T00:37:27.681Z,0.00
2023-05-19T00:38:27.678Z,0.00
2023-05-19T00:39:27.653Z,0.00
2023-05-19T00:40:27.668Z,0.00
2023-05-19T00:41:27.646Z,0.00
2023-05-19T00:42:27.694Z,0.00
2023-05-19T00:43:27.666Z,0.00
2023-05-19T00:44:27.650Z,0.00
2023-05-19T00:45:27.649Z,0.00
2023-05-19T00:46:27.694Z,0.00
2023-05-19T00:47:27.710Z,0.00
2023-05-19T00:48:27.644Z,0.00
2023-05-19T00:49:27.637Z,0.00
2023-05-19T00:50:27.641Z,0.00
2023-05-19T00:51:27.638Z,0.00
2023-05-19T00:52:27.625Z,0.00
2023-05-19T00:53:27.640Z,0.00
2023-05-19T00:54:27.616Z,0.00
2023-05-19T00:55:27.626Z,0.00
2023-05-19T00:56:27.631Z,0.00
2023-05-19T00:57:27.599Z,0.00
2023-05-19T00:58:27.669Z,0.00
2023-05-19T00:59:27.604Z,0.00
2023-05-19T01:00:27.609Z,0.00
2023-05-19T01:01:27.748Z,0.00
2023-05-19T01:02:27.671Z,0.00
2023-05-19T01:03:27.784Z,0.00
2023-05-19T01:04:27.615Z,0.00
2023-05-19T01:05:27.584Z,0.00
2023-05-19T01:06:27.596Z,0.00
2023-05-19T01:07:27.573Z,0.00
2023-05-19T01:08:27.575Z,0.00
2023-05-19T01:09:27.584Z,0.00
2023-05-19T01:10:27.590Z,0.00
2023-05-19T01:11:27.590Z,0.00
2023-05-19T01:12:27.576Z,0.00
2023-05-19T01:13:27.560Z,0.00
2023-05-19T01:14:27.598Z,0.00
2023-05-19T01:15:27.578Z,0.00
2023-05-19T01:16:27.588Z,0.00
2023-05-19T01:17:27.616Z,0.00
2023-05-19T01:18:27.567Z,0.00
2023-05-19T01:19:27.599Z,0.00
2023-05-19T01:20:27.558Z,0.00
2023-05-19T01:21:27.556Z,0.00
2023-05-19T01:22:27.546Z,0.00
2023-05-19T01:23:27.531Z,0.00
2023-05-19T01:24:27.529Z,0.00
2023-05-19T01:25:27.544Z,0.00
2023-05-19T01:26:27.536Z,0.00
2023-05-19T01:27:27.538Z,0.00
2023-05-19T01:28:27.546Z,0.00
2023-05-19T01:29:27.514Z,0.00
2023-05-19T01:30:27.551Z,0.00
2023-05-19T01:31:27.522Z,0.00
2023-05-19T01:32:27.544Z,0.00
2023-05-19T01:33:27.517Z,0.00
2023-05-19T01:34:27.511Z,0.00
2023-05-19T01:35:27.510Z,0.00
2023-05-19T01:36:27.507Z,0.00
2023-05-19T01:37:27.501Z,0.00
2023-05-19T01:38:27.529Z,0.00
2023-05-19T01:39:27.508Z,0.00
2023-05-19T01:40:27.513Z,0.00
2023-05-19T01:41:27.505Z,0.00
2023-05-19T01:42:27.502Z,0.00
2023-05-19T01:43:27.478Z,0.00
2023-05-19T01:44:27.496Z,0.00
2023-05-19T01:45:27.485Z,0.00
2023-05-19T01:46:27.605Z,0.00
2023-05-19T01:47:27.494Z,0.00
2023-05-19T01:48:27.486Z,0.00
2023-05-19T01:49:27.464Z,0.00
2023-05-19T01:50:27.466Z,0.00
2023-05-19T01:51:27.477Z,0.00
2023-05-19T01:52:27.474Z,0.00
2023-05-19T01:53:27.453Z,0.00
2023-05-19T01:54:27.471Z,0.00
2023-05-19T01:55:27.459Z,0.00
2023-05-19T01:56:27.440Z,0.00
2023-05-19T01:57:27.436Z,0.00
2023-05-19T01:58:27.459Z,0.00
2023-05-19T01:59:27.448Z,0.00
2023-05-19T02:00:27.449Z,0.00
2023-05-19T02:01:27.512Z,0.00
2023-05-19T02:02:27.503Z,0.00
2023-05-19T02:03:27.443Z,0.00
2023-05-19T02:04:27.520Z,0.00
2023-05-19T02:05:27.434Z,0.00
2023-05-19T02:06:27.436Z,0.00
2023-05-19T02:07:27.424Z,0.00
2023-05-19T02:08:27.438Z,0.00
2023-05-19T02:09:27.448Z,0.00
2023-05-19T02:10:27.446Z,0.00
2023-05-19T02:11:27.420Z,0.00
2023-05-19T02:12:27.401Z,0.00
2023-05-19T02:13:27.401Z,0.00
2023-05-19T02:14:27.463Z,0.00
2023-05-19T02:15:27.422Z,0.00
2023-05-19T02:16:27.549Z,0.00
2023-05-19T02:17:27.378Z,0.00
2023-05-19T02:18:27.403Z,0.00
2023-05-19T02:19:27.476Z,0.00
2023-05-19T02:20:27.398Z,0.00
2023-05-19T02:21:27.379Z,0.00
2023-05-19T02:22:27.398Z,0.00
2023-05-19T02:23:27.379Z,0.00
2023-05-19T02:24:27.403Z,0.00
2023-05-19T02:25:27.356Z,0.00
2023-05-19T02:26:27.370Z,0.00
2023-05-19T02:27:27.352Z,0.00
2023-05-19T02:28:27.352Z,0.00
2023-05-19T02:29:27.358Z,0.00
2023-05-19T02:30:27.362Z,0.00
2023-05-19T02:31:27.355Z,0.00
2023-05-19T02:32:27.432Z,0.00
2023-05-19T02:33:27.358Z,0.00
2023-05-19T02:34:27.435Z,0.00
2023-05-19T02:35:27.345Z,0.00
2023-05-19T02:36:27.345Z,0.00
2023-05-19T02:37:27.324Z,0.00
2023-05-19T02:38:27.329Z,0.00
2023-05-19T02:39:27.342Z,0.00
2023-05-19T02:40:27.349Z,0.00
2023-05-19T02:41:27.344Z,0.00
2023-05-19T02:42:27.333Z,0.00
2023-05-19T02:43:27.309Z,0.00
2023-05-19T02:44:27.304Z,0.00
2023-05-19T02:45:27.306Z,0.00
2023-05-19T02:46:27.345Z,0.00
2023-05-19T02:47:27.318Z,0.00
2023-05-19T02:48:27.309Z,0.00
2023-05-19T02:49:27.300Z,0.00
2023-05-19T02:50:27.360Z,0.00
2023-05-19T02:51:27.302Z,0.00
2023-05-19T02:52:27.287Z,0.00
2023-05-19T02:53:27.271Z,0.00
2023-05-19T02:54:27.277Z,0.00
2023-05-19T02:55:27.290Z,0.00
2023-05-19T02:56:27.297Z,0.00
2023-05-19T02:57:27.272Z,0.00
2023-05-19T02:58:27.278Z,0.00
2023-05-19T02:59:27.252Z,0.00
2023-05-19T03:00:27.259Z,0.00
2023-05-19T03:01:27.299Z,0.00
2023-05-19T03:02:27.373Z,0.00
2023-05-19T03:03:27.384Z,0.00
2023-05-19T03:04:27.264Z,0.00
2023-05-19T03:05:27.252Z,0.00
2023-05-19T03:06:27.263Z,0.00
2023-05-19T03:07:27.238Z,0.00
2023-05-19T03:08:27.250Z,0.00
2023-05-19T03:09:27.237Z,0.00
2023-05-19T03:10:27.232Z,0.00
2023-05-19T03:11:27.221Z,0.00
2023-05-19T03:12:27.242Z,0.00
2023-05-19T03:13:27.214Z,0.00
2023-05-19T03:14:27.219Z,0.00
2023-05-19T03:15:27.208Z,0.00
2023-05-19T03:16:27.240Z,0.00
2023-05-19T03:17:27.345Z,0.00
2023-05-19T03:18:27.253Z,0.00
2023-05-19T03:19:27.309Z,0.00
2023-05-19T03:20:27.220Z,0.00
2023-05-19T03:21:27.203Z,0.00
2023-05-19T03:22:27.330Z,0.00
2023-05-19T03:23:27.202Z,0.00
2023-05-19T03:24:27.200Z,0.00
2023-05-19T03:25:27.183Z,0.00
2023-05-19T03:26:27.199Z,0.00
2023-05-19T03:27:27.177Z,0.00
2023-05-19T03:28:27.240Z,0.00
2023-05-19T03:29:27.178Z,0.00
2023-05-19T03:30:27.187Z,0.00
2023-05-19T03:31:27.181Z,0.00
2023-05-19T03:32:27.265Z,0.00
2023-05-19T03:33:27.241Z,0.00
2023-05-19T03:34:27.174Z,0.00
2023-05-19T03:35:27.167Z,0.00
2023-05-19T03:36:27.174Z,0.00
2023-05-19T03:37:27.166Z,0.00
2023-05-19T03:38:27.172Z,0.00
2023-05-19T03:39:27.145Z,0.00
2023-05-19T03:40:27.159Z,0.00
2023-05-19T03:41:27.150Z,0.00
2023-05-19T03:42:27.153Z,0.00
2023-05-19T03:43:27.141Z,0.00
2023-05-19T03:44:27.147Z,0.00
2023-05-19T03:45:27.127Z,0.00
2023-05-19T03:46:27.169Z,0.00
2023-05-19T03:47:27.138Z,0.00
2023-05-19T03:48:27.121Z,0.00
2023-05-19T03:49:27.117Z,0.00
2023-05-19T03:50:27.122Z,0.00
2023-05-19T03:51:27.124Z,0.00
2023-05-19T03:52:27.111Z,0.00
2023-05-19T03:53:27.106Z,0.00
2023-05-19T03:54:27.147Z,0.00
2023-05-19T03:55:27.103Z,0.00
2023-05-19T03:56:27.106Z,0.00
2023-05-19T03:57:27.086Z,0.00
2023-05-19T03:58:27.114Z,0.00
2023-05-19T03:59:27.091Z,0.00
2023-05-19T04:00:27.106Z,0.00
2023-05-19T04:01:27.094Z,0.00
2023-05-19T04:02:27.132Z,0.00
2023-05-19T04:03:27.141Z,0.00
2023-05-19T04:04:27.104Z,0.00
2023-05-19T04:05:27.079Z,0.00
2023-05-19T04:06:27.070Z,0.00
2023-05-19T04:07:27.081Z,0.00
2023-05-19T04:08:27.063Z,0.00
2023-05-19T04:09:27.074Z,0.00
2023-05-19T04:10:27.100Z,0.00
2023-05-19T04:11:27.076Z,0.00
2023-05-19T04:12:27.059Z,0.00
2023-05-19T04:13:27.071Z,0.00
2023-05-19T04:14:27.053Z,0.00
2023-05-19T04:15:27.052Z,0.00
2023-05-19T04:16:27.076Z,0.00
2023-05-19T04:17:27.121Z,0.00
2023-05-19T04:18:28.913Z,0.00
2023-05-19T04:19:27.112Z,0.00
2023-05-19T04:20:27.038Z,0.00
2023-05-19T04:21:27.016Z,0.00
2023-05-19T04:22:27.021Z,0.00
2023-05-19T04:23:27.022Z,0.00
2023-05-19T04:24:27.020Z,0.00
2023-05-19T04:25:27.023Z,0.00
2023-05-19T04:26:27.032Z,0.00
2023-05-19T04:27:27.009Z,0.00
2023-05-19T04:28:27.023Z,0.00
2023-05-19T04:29:27.002Z,0.00
2023-05-19T04:30:27.020Z,0.00
2023-05-19T04:31:27.064Z,0.00
2023-05-19T04:32:27.061Z,0.00
2023-05-19T04:33:26.986Z,0.00
2023-05-19T04:34:26.991Z,0.00
2023-05-19T04:35:27.009Z,0.00
2023-05-19T04:36:27.000Z,0.00
2023-05-19T04:37:27.001Z,0.00
2023-05-19T04:38:26.972Z,0.00
2023-05-19T04:39:26.975Z,0.00
2023-05-19T04:40:26.981Z,0.00
2023-05-19T04:41:26.968Z,0.00
2023-05-19T04:42:26.981Z,0.00
2023-05-19T04:43:26.982Z,0.00
2023-05-19T04:44:26.968Z,0.00
2023-05-19T04:45:26.976Z,0.00
2023-05-19T04:46:27.014Z,0.00
2023-05-19T04:47:26.948Z,0.00
2023-05-19T04:48:26.955Z,0.00
2023-05-19T04:49:26.944Z,0.00
2023-05-19T04:50:26.951Z,0.00
2023-05-19T04:51:26.961Z,0.00
2023-05-19T04:52:26.947Z,0.00
2023-05-19T04:53:26.942Z,0.00
2023-05-19T04:54:26.938Z,0.00
2023-05-19T04:55:26.948Z,0.00
2023-05-19T04:56:26.918Z,0.00
2023-05-19T04:57:26.931Z,5.63
2023-05-19T04:58:26.959Z,5.63
2023-05-19T04:59:26.906Z,5.63
2023-05-19T05:00:26.924Z,5.63
2023-05-19T05:01:27.008Z,5.63
2023-05-19T05:02:26.962Z,5.63
2023-05-19T05:03:26.975Z,5.63
2023-05-19T05:04:26.913Z,5.63
2023-05-19T05:05:26.921Z,11.25
2023-05-19T05:06:26.888Z,11.25
2023-05-19T05:07:26.895Z,11.25
2023-05-19T05:08:26.878Z,11.25
2023-05-19T05:09:26.890Z,11.25
2023-05-19T05:10:26.873Z,11.25
2023-05-19T05:11:26.888Z,16.88
2023-05-19T05:12:26.861Z,16.88
2023-05-19T05:13:26.861Z,16.88
2023-05-19T05:14:26.890Z,16.88
2023-05-19T05:15:26.873Z,16.88
2023-05-19T05:16:26.912Z,16.88
2023-05-19T05:17:26.916Z,16.88
2023-05-19T05:18:26.868Z,16.88
2023-05-19T05:19:26.875Z,22.50
2023-05-19T05:20:26.855Z,22.50
2023-05-19T05:21:26.867Z,22.50
2023-05-19T05:22:26.853Z,16.88
2023-05-19T05:23:26.832Z,16.88
2023-05-19T05:24:26.843Z,16.88
2023-05-19T05:25:26.829Z,16.88
2023-05-19T05:26:26.834Z,16.88
2023-05-19T05:27:26.827Z,16.88
2023-05-19T05:28:26.844Z,16.88
2023-05-19T05:29:26.835Z,16.88
2023-05-19T05:30:26.848Z,16.88
2023-05-19T05:31:26.834Z,16.88
2023-05-19T05:32:26.912Z,16.88
2023-05-19T05:33:26.999Z,16.88
2023-05-19T05:34:26.822Z,16.88
2023-05-19T05:35:26.819Z,16.88
2023-05-19T05:36:26.813Z,16.88
2023-05-19T05:37:26.807Z,16.88
2023-05-19T05:38:26.825Z,16.88
2023-05-19T05:39:26.798Z,16.88
2023-05-19T05:40:26.812Z,16.88
2023-05-19T05:41:26.792Z,22.50
2023-05-19T05:42:29.527Z,22.50
2023-05-19T05:43:26.794Z,22.50
2023-05-19T05:44:26.789Z,22.50
2023-05-19T05:45:26.856Z,22.50
2023-05-19T05:46:26.955Z,22.50
2023-05-19T05:47:26.836Z,22.50
2023-05-19T05:48:26.793Z,39.38
2023-05-19T05:49:26.810Z,50.63
2023-05-19T05:50:26.780Z,28.13
2023-05-19T05:51:26.782Z,22.50
2023-05-19T05:52:26.779Z,22.50
2023-05-19T05:53:26.761Z,22.50
2023-05-19T05:54:26.801Z,22.50
2023-05-19T05:55:26.801Z,22.50
2023-05-19T05:56:26.752Z,22.50
2023-05-19T05:57:26.776Z,22.50
2023-05-19T05:58:26.768Z,22.50
2023-05-19T05:59:26.759Z,28.13
2023-05-19T06:00:26.755Z,28.13
2023-05-19T06:01:26.768Z,28.13
2023-05-19T06:02:26.850Z,28.13
2023-05-19T06:03:26.793Z,28.13
2023-05-19T06:04:26.760Z,28.13
2023-05-19T06:05:26.882Z,28.13
2023-05-19T06:06:26.754Z,28.13
2023-05-19T06:07:26.785Z,28.13
2023-05-19T06:08:26.746Z,28.13
2023-05-19T06:09:26.747Z,28.13
2023-05-19T06:10:26.749Z,28.13
2023-05-19T06:11:26.729Z,28.13
2023-05-19T06:12:26.748Z,28.13
2023-05-19T06:13:26.732Z,28.13
2023-05-19T06:14:26.729Z,28.13
2023-05-19T06:15:26.761Z,28.13
2023-05-19T06:16:26.768Z,33.75
2023-05-19T06:17:26.798Z,39.38
2023-05-19T06:18:26.739Z,33.75
2023-05-19T06:19:26.838Z,33.75
2023-05-19T06:20:26.720Z,28.13
2023-05-19T06:21:26.733Z,28.13
2023-05-19T06:22:26.735Z,45.00
2023-05-19T06:23:26.746Z,78.75
2023-05-19T06:24:26.707Z,61.88
2023-05-19T06:25:26.736Z,56.25
2023-05-19T06:26:26.707Z,50.63
2023-05-19T06:27:26.715Z,33.75
2023-05-19T06:28:26.724Z,33.75
2023-05-19T06:29:26.706Z,28.13
2023-05-19T06:30:26.706Z,16.88
2023-05-19T06:31:26.805Z,11.25
2023-05-19T06:32:26.751Z,11.25
2023-05-19T06:33:28.965Z,5.63
2023-05-19T06:34:26.748Z,5.63
2023-05-19T06:35:26.703Z,5.63
2023-05-19T06:36:26.711Z,5.63
2023-05-19T06:37:26.691Z,5.63
2023-05-19T06:38:26.678Z,5.63
2023-05-19T06:39:26.691Z,5.63
2023-05-19T06:40:26.727Z,5.63
2023-05-19T06:41:26.680Z,5.63
2023-05-19T06:42:26.684Z,5.63
2023-05-19T06:43:26.699Z,5.63
2023-05-19T06:44:26.686Z,5.63
2023-05-19T06:45:26.700Z,5.63
2023-05-19T06:46:26.715Z,5.63
2023-05-19T06:47:26.699Z,11.25
2023-05-19T06:48:26.681Z,11.25
2023-05-19T06:49:26.674Z,11.25
2023-05-19T06:50:26.679Z,16.88
2023-05-19T06:51:26.675Z,16.88
2023-05-19T06:52:26.690Z,16.88
2023-05-19T06:53:26.669Z,22.50
2023-05-19T06:54:26.654Z,33.75
2023-05-19T06:55:26.671Z,106.88
2023-05-19T06:56:26.670Z,185.63
2023-05-19T06:57:26.679Z,225.00
2023-05-19T06:58:26.699Z,230.63
2023-05-19T06:59:26.666Z,236.25
2023-05-19T07:00:26.705Z,247.50
2023-05-19T07:01:26.735Z,241.88
2023-05-19T07:02:26.663Z,247.50
2023-05-19T07:03:26.722Z,241.88
2023-05-19T07:04:26.654Z,213.75
2023-05-19T07:05:26.639Z,202.50
2023-05-19T07:06:26.678Z,196.88
2023-05-19T07:07:26.662Z,174.38
2023-05-19T07:08:26.686Z,146.25
2023-05-19T07:09:26.633Z,151.88
2023-05-19T07:10:26.685Z,157.50
2023-05-19T07:11:26.656Z,157.50
2023-05-19T07:12:26.648Z,151.88
2023-05-19T07:13:27.460Z,151.88
2023-05-19T07:14:26.618Z,163.13
2023-05-19T07:15:26.634Z,202.50
2023-05-19T07:16:26.678Z,258.75
2023-05-19T07:17:26.631Z,303.75
2023-05-19T07:18:26.622Z,320.63
2023-05-19T07:19:26.688Z,320.63
2023-05-19T07:20:26.667Z,315.00
2023-05-19T07:21:26.628Z,320.63
2023-05-19T07:22:26.635Z,315.00
2023-05-19T07:23:26.626Z,303.75
2023-05-19T07:24:26.632Z,298.13
2023-05-19T07:25:26.618Z,298.13
2023-05-19T07:26:26.603Z,298.13
2023-05-19T07:27:26.642Z,286.88
2023-05-19T07:28:26.619Z,298.13
2023-05-19T07:29:26.618Z,270.00
2023-05-19T07:30:26.617Z,168.75
2023-05-19T07:31:26.641Z,78.75
2023-05-19T07:32:26.685Z,67.50
2023-05-19T07:33:26.598Z,61.88
2023-05-19T07:34:26.623Z,56.25
2023-05-19T07:35:26.598Z,56.25
2023-05-19T07:36:26.602Z,56.25
2023-05-19T07:37:26.610Z,56.25
2023-05-19T07:38:26.619Z,50.63
2023-05-19T07:39:26.610Z,50.63
2023-05-19T07:40:26.600Z,50.63
2023-05-19T07:41:26.610Z,50.63
2023-05-19T07:42:26.611Z,50.63
2023-05-19T07:43:26.602Z,45.00
2023-05-19T07:44:26.603Z,50.63
2023-05-19T07:45:26.612Z,50.63
2023-05-19T07:46:26.758Z,45.00
2023-05-19T07:47:26.632Z,45.00
2023-05-19T07:48:26.596Z,45.00
2023-05-19T07:49:26.596Z,45.00
2023-05-19T07:50:26.596Z,45.00
2023-05-19T07:51:26.593Z,50.63
2023-05-19T07:52:26.610Z,50.63
2023-05-19T07:53:26.600Z,50.63
2023-05-19T07:54:26.625Z,50.63
2023-05-19T07:55:26.618Z,50.63
2023-05-19T07:56:26.575Z,50.63
2023-05-19T07:57:26.598Z,50.63
2023-05-19T07:58:26.606Z,56.25
2023-05-19T07:59:26.577Z,56.25
2023-05-19T08:00:26.604Z,56.25
2023-05-19T08:01:26.584Z,56.25
2023-05-19T08:02:26.689Z,61.88
2023-05-19T08:03:26.722Z,61.88
2023-05-19T08:04:26.618Z,61.88
2023-05-19T08:05:26.602Z,61.88
2023-05-19T08:06:26.581Z,61.88
2023-05-19T08:07:26.576Z,67.50
2023-05-19T08:08:26.580Z,67.50
2023-05-19T08:09:26.579Z,73.13
2023-05-19T08:10:26.701Z,95.63
2023-05-19T08:11:26.579Z,140.63
2023-05-19T08:12:26.593Z,168.75
2023-05-19T08:13:26.569Z,135.00
2023-05-19T08:14:26.562Z,106.88
2023-05-19T08:15:26.623Z,95.63
2023-05-19T08:16:26.731Z,95.63
2023-05-19T08:17:26.613Z,95.63
2023-05-19T08:18:26.585Z,95.63
2023-05-19T08:19:26.639Z,129.38
2023-05-19T08:20:26.562Z,286.88
2023-05-19T08:21:26.572Z,376.88
2023-05-19T08:22:26.583Z,253.13
2023-05-19T08:23:26.571Z,185.63
2023-05-19T08:24:26.586Z,168.75
2023-05-19T08:25:26.589Z,106.88
2023-05-19T08:26:26.618Z,101.25
2023-05-19T08:27:26.581Z,101.25
2023-05-19T08:28:26.565Z,101.25
2023-05-19T08:29:26.566Z,106.88
2023-05-19T08:30:26.561Z,112.50
2023-05-19T08:31:26.620Z,112.50
2023-05-19T08:32:26.572Z,118.13
2023-05-19T08:33:26.588Z,112.50
2023-05-19T08:34:26.561Z,112.50
2023-05-19T08:35:26.569Z,118.13
2023-05-19T08:36:26.571Z,135.00
2023-05-19T08:37:26.575Z,146.25
2023-05-19T08:38:26.584Z,225.00
2023-05-19T08:39:26.580Z,230.63
2023-05-19T08:40:26.568Z,202.50
2023-05-19T08:41:26.594Z,213.75
2023-05-19T08:42:26.583Z,196.88
2023-05-19T08:43:26.585Z,174.38
2023-05-19T08:44:26.601Z,180.00
2023-05-19T08:45:26.574Z,315.00
2023-05-19T08:46:26.741Z,399.38
2023-05-19T08:47:26.622Z,371.25
2023-05-19T08:48:26.579Z,292.50
2023-05-19T08:49:26.555Z,146.25
2023-05-19T08:50:26.562Z,67.50
2023-05-19T08:51:26.548Z,39.38
2023-05-19T08:52:26.576Z,28.13
2023-05-19T08:53:33.859Z,22.50
2023-05-19T08:54:26.561Z,22.50
2023-05-19T08:55:26.551Z,16.88
2023-05-19T08:56:26.565Z,16.88
2023-05-19T08:57:26.569Z,16.88
2023-05-19T08:58:28.118Z,11.25
2023-05-19T08:59:26.565Z,11.25
2023-05-19T09:00:26.564Z,11.25
2023-05-19T09:01:26.570Z,11.25
2023-05-19T09:02:26.608Z,11.25
2023-05-19T09:03:26.757Z,11.25
2023-05-19T09:04:28.321Z,5.63
2023-05-19T09:05:26.580Z,5.63
2023-05-19T09:06:26.564Z,5.63
2023-05-19T09:07:26.560Z,5.63
2023-05-19T09:08:26.554Z,5.63
2023-05-19T09:09:26.540Z,5.63
2023-05-19T09:10:28.438Z,5.63
2023-05-19T09:11:26.551Z,5.63
2023-05-19T09:12:26.539Z,5.63
2023-05-19T09:13:26.538Z,5.63
2023-05-19T09:14:26.590Z,5.63
2023-05-19T09:15:26.545Z,5.63
2023-05-19T09:16:27.870Z,5.63
2023-05-19T09:17:26.590Z,5.63
2023-05-19T09:18:26.530Z,5.63
2023-05-19T09:19:26.695Z,5.63
2023-05-19T09:20:26.558Z,5.63
2023-05-19T09:21:26.527Z,5.63
2023-05-19T09:22:26.541Z,5.63
2023-05-19T09:23:26.548Z,5.63
2023-05-19T09:24:26.528Z,5.63
2023-05-19T09:25:26.540Z,5.63
2023-05-19T09:26:26.548Z,5.63
2023-05-19T09:27:26.526Z,5.63
2023-05-19T09:28:26.559Z,5.63
2023-05-19T09:29:26.532Z,5.63
2023-05-19T09:30:26.672Z,5.63
2023-05-19T09:31:26.632Z,5.63
2023-05-19T09:32:26.947Z,5.63
2023-05-19T09:33:26.523Z,5.63
2023-05-19T09:34:26.513Z,5.63
2023-05-19T09:35:26.534Z,5.63
2023-05-19T09:36:26.506Z,5.63
2023-05-19T09:37:26.522Z,5.63
2023-05-19T09:38:26.510Z,5.63
2023-05-19T09:39:26.560Z,5.63
2023-05-19T09:40:26.507Z,5.63
2023-05-19T09:41:26.516Z,5.63
2023-05-19T09:42:26.524Z,5.63
2023-05-19T09:43:26.503Z,5.63
2023-05-19T09:44:26.504Z,5.63
2023-05-19T09:45:26.522Z,5.63
2023-05-19T09:46:26.575Z,5.63
2023-05-19T09:47:26.549Z,5.63
2023-05-19T09:48:26.526Z,5.63
2023-05-19T09:49:26.507Z,5.63
2023-05-19T09:50:26.508Z,5.63
2023-05-19T09:51:26.501Z,5.63
2023-05-19T09:52:26.510Z,5.63
2023-05-19T09:53:26.520Z,5.63
2023-05-19T09:54:26.510Z,5.63
2023-05-19T09:55:26.489Z,5.63
2023-05-19T09:56:26.499Z,5.63
2023-05-19T09:57:26.484Z,5.63
2023-05-19T09:58:26.585Z,5.63
2023-05-19T09:59:26.513Z,5.63
2023-05-19T10:00:26.483Z,11.25
2023-05-19T10:01:26.505Z,11.25
2023-05-19T10:02:26.623Z,11.25
2023-05-19T10:03:26.470Z,11.25
2023-05-19T10:04:26.489Z,11.25
2023-05-19T10:05:26.493Z,11.25
2023-05-19T10:06:26.503Z,11.25
2023-05-19T10:07:26.474Z,11.25
2023-05-19T10:08:26.484Z,11.25
2023-05-19T10:09:26.481Z,11.25
2023-05-19T10:10:26.481Z,11.25
2023-05-19T10:11:26.456Z,5.63
2023-05-19T10:12:26.472Z,11.25
2023-05-19T10:13:26.460Z,11.25
2023-05-19T10:14:26.459Z,11.25
2023-05-19T10:15:26.452Z,11.25
2023-05-19T10:16:26.531Z,11.25
2023-05-19T10:17:26.491Z,11.25
2023-05-19T10:18:26.480Z,11.25
2023-05-19T10:19:26.597Z,11.25
2023-05-19T10:20:26.464Z,11.25
2023-05-19T10:21:26.439Z,11.25
2023-05-19T10:22:26.463Z,11.25
2023-05-19T10:23:26.451Z,5.63
2023-05-19T10:24:26.441Z,5.63
2023-05-19T10:25:26.457Z,5.63
2023-05-19T10:26:26.463Z,5.63
2023-05-19T10:27:26.433Z,5.63
2023-05-19T10:28:26.458Z,5.63
2023-05-19T10:29:26.428Z,5.63
2023-05-19T10:30:26.448Z,5.63
2023-05-19T10:31:26.443Z,5.63
2023-05-19T10:32:26.544Z,5.63
2023-05-19T10:33:26.448Z,5.63
2023-05-19T10:34:26.503Z,5.63
2023-05-19T10:35:26.418Z,5.63
2023-05-19T10:36:26.434Z,11.25
2023-05-19T10:37:26.428Z,11.25
2023-05-19T10:38:26.430Z,11.25
2023-05-19T10:39:26.451Z,11.25
2023-05-19T10:40:26.444Z,11.25
2023-05-19T10:41:26.424Z,5.63
2023-05-19T10:42:26.453Z,5.63
2023-05-19T10:43:26.422Z,5.63
2023-05-19T10:44:26.410Z,5.63
2023-05-19T10:45:26.419Z,11.25
2023-05-19T10:46:26.438Z,11.25
2023-05-19T10:47:26.482Z,11.25
2023-05-19T10:48:26.471Z,11.25
2023-05-19T10:49:26.417Z,11.25
2023-05-19T10:50:26.456Z,11.25
2023-05-19T10:51:26.411Z,11.25
2023-05-19T10:52:26.464Z,11.25
2023-05-19T10:53:26.410Z,11.25
2023-05-19T10:54:26.413Z,11.25
2023-05-19T10:55:26.417Z,11.25
2023-05-19T10:56:26.408Z,5.63
2023-05-19T10:57:26.399Z,5.63
2023-05-19T10:58:26.402Z,5.63
2023-05-19T10:59:27.878Z,11.25
2023-05-19T11:00:26.428Z,11.25
2023-05-19T11:01:26.393Z,5.63
2023-05-19T11:02:26.488Z,5.63
2023-05-19T11:03:26.411Z,5.63
2023-05-19T11:04:26.517Z,5.63
2023-05-19T11:05:26.374Z,11.25
2023-05-19T11:06:26.393Z,5.63
2023-05-19T11:07:26.403Z,11.25
2023-05-19T11:08:26.373Z,5.63
2023-05-19T11:09:37.867Z,5.63
2023-05-19T11:10:26.384Z,5.63
2023-05-19T11:11:26.397Z,5.63
2023-05-19T11:12:26.372Z,5.63
2023-05-19T11:13:28.405Z,5.63
2023-05-19T11:14:26.384Z,5.63
2023-05-19T11:15:26.440Z,5.63
2023-05-19T11:16:26.426Z,5.63
2023-05-19T11:17:26.390Z,5.63
2023-05-19T11:18:26.385Z,5.63
2023-05-19T11:19:26.428Z,5.63
2023-05-19T11:20:26.400Z,5.63
2023-05-19T11:21:26.429Z,5.63
2023-05-19T11:22:26.424Z,5.63
2023-05-19T11:23:26.396Z,5.63
2023-05-19T11:24:26.360Z,5.63
2023-05-19T11:25:26.349Z,5.63
2023-05-19T11:26:26.358Z,5.63
2023-05-19T11:27:26.344Z,5.63
2023-05-19T11:28:26.411Z,5.63
2023-05-19T11:29:26.344Z,5.63
2023-05-19T11:30:26.356Z,5.63
2023-05-19T11:31:26.427Z,5.63
2023-05-19T11:32:26.500Z,5.63
2023-05-19T11:33:26.342Z,5.63
2023-05-19T11:34:26.334Z,5.63
2023-05-19T11:35:26.344Z,5.63
2023-05-19T11:36:26.335Z,5.63
2023-05-19T11:37:26.361Z,5.63
2023-05-19T11:38:26.377Z,5.63
2023-05-19T11:39:26.330Z,11.25
2023-05-19T11:40:26.344Z,11.25
2023-05-19T11:41:26.342Z,11.25
2023-05-19T11:42:26.326Z,11.25
2023-05-19T11:43:26.309Z,11.25
2023-05-19T11:44:26.325Z,11.25
2023-05-19T11:45:26.325Z,5.63
2023-05-19T11:46:26.341Z,5.63
2023-05-19T11:47:26.409Z,5.63
2023-05-19T11:48:26.489Z,5.63
2023-05-19T11:49:26.293Z,5.63
2023-05-19T11:50:26.319Z,5.63
2023-05-19T11:51:26.305Z,5.63
2023-05-19T11:52:26.313Z,0.00
2023-05-19T11:53:26.302Z,0.00
2023-05-19T11:54:26.328Z,5.63
2023-05-19T11:55:26.281Z,5.63
2023-05-19T11:56:26.310Z,5.63
2023-05-19T11:57:26.302Z,5.63
2023-05-19T11:58:26.311Z,5.63
2023-05-19T11:59:26.276Z,5.63
2023-05-19T12:00:26.276Z,0.00
2023-05-19T12:01:26.291Z,5.63
2023-05-19T12:02:26.322Z,5.63
2023-05-19T12:03:26.330Z,5.63
2023-05-19T12:04:26.388Z,5.63
2023-05-19T12:05:26.341Z,5.63
2023-05-19T12:06:26.303Z,5.63
2023-05-19T12:07:26.260Z,5.63
2023-05-19T12:08:26.275Z,5.63
2023-05-19T12:09:26.259Z,5.63
2023-05-19T12:10:26.304Z,5.63
2023-05-19T12:11:26.271Z,5.63
2023-05-19T12:12:26.263Z,0.00
2023-05-19T12:13:26.249Z,0.00
2023-05-19T12:14:26.269Z,0.00
2023-05-19T12:15:26.246Z,5.63
2023-05-19T12:16:26.275Z,0.00
2023-05-19T12:17:26.291Z,0.00
2023-05-19T12:18:26.253Z,5.63
2023-05-19T12:19:26.477Z,5.63
2023-05-19T12:20:26.260Z,0.00
2023-05-19T12:21:34.196Z,5.63
2023-05-19T12:22:26.256Z,5.63
2023-05-19T12:23:26.233Z,5.63
2023-05-19T12:24:26.259Z,5.63
2023-05-19T12:25:26.248Z,5.63
2023-05-19T12:26:26.270Z,5.63
2023-05-19T12:27:26.302Z,5.63
2023-05-19T12:28:26.232Z,5.63
2023-05-19T12:29:26.242Z,5.63
2023-05-19T12:30:26.221Z,5.63
2023-05-19T12:31:26.260Z,5.63
2023-05-19T12:32:26.281Z,5.63
2023-05-19T12:33:26.215Z,5.63
2023-05-19T12:34:26.230Z,5.63
2023-05-19T12:35:26.221Z,5.63
2023-05-19T12:36:26.229Z,5.63
2023-05-19T12:37:26.205Z,5.63
2023-05-19T12:38:26.206Z,5.63
2023-05-19T12:39:26.216Z,5.63
2023-05-19T12:40:26.230Z,5.63
2023-05-19T12:41:26.211Z,5.63
2023-05-19T12:42:26.217Z,5.63
2023-05-19T12:43:26.235Z,5.63
2023-05-19T12:44:26.209Z,5.63
2023-05-19T12:45:26.205Z,5.63
2023-05-19T12:46:26.318Z,5.63
2023-05-19T12:47:26.233Z,5.63
2023-05-19T12:48:26.188Z,5.63
2023-05-19T12:49:26.216Z,5.63
2023-05-19T12:50:26.195Z,5.63
2023-05-19T12:51:26.195Z,5.63
2023-05-19T12:52:26.188Z,5.63
2023-05-19T12:53:26.175Z,5.63
2023-05-19T12:54:26.260Z,5.63
2023-05-19T12:55:26.181Z,5.63
2023-05-19T12:56:26.175Z,5.63
2023-05-19T12:57:26.201Z,5.63
2023-05-19T12:58:26.199Z,5.63
2023-05-19T12:59:37.427Z,5.63
2023-05-19T13:00:26.207Z,5.63
2023-05-19T13:01:26.339Z,5.63
2023-05-19T13:02:26.258Z,5.63
2023-05-19T13:03:26.423Z,5.63
2023-05-19T13:04:26.193Z,5.63
2023-05-19T13:05:26.162Z,5.63
2023-05-19T13:06:26.158Z,5.63
2023-05-19T13:07:26.159Z,5.63